Time;durP1;ratioP1;P1;durP2;ratioP2;P2;SDS_P1;SDS_P2;PMS_P1;PMS_P2;Temp;Humidity;BMP_temperature;BMP_pressure;BME280_temperature;BME280_humidity;BME280_pressure;Samples;Min_cycle;Max_cycle;Signal;HPM_P1;HPM_P2
2022/04/03 00:00:33;;;;;;;9.07;5.70;;;;;;;;;;5116502;28;20202;-64
2022/04/03 00:03:08;;;;;;;8.57;4.87;;;;;;;;;;5115577;28;20194;-64
2022/04/03 00:05:38;;;;;;;8.50;5.60;;;;;;;;;;5115510;28;20243;-64
2022/04/03 00:08:06;;;;;;;12.57;5.30;;;;;;;;;;5114911;28;20212;-63
2022/04/03 00:10:35;;;;;;;9.90;5.67;;;;;;;;;;5116079;28;20280;-64
2022/04/03 00:13:03;;;;;;;6.43;4.27;;;;;;;;;;5115340;28;20202;-63
2022/04/03 00:15:30;;;;;;;8.03;5.27;;;;;;;;;;5115946;28;20214;-64
2022/04/03 00:17:57;;;;;;;9.30;5.50;;;;;;;;;;5115513;28;20214;-63
2022/04/03 00:20:24;;;;;;;12.50;6.03;;;;;;;;;;5115635;28;20209;-64
2022/04/03 00:22:52;;;;;;;10.10;5.33;;;;;;;;;;5115438;28;20214;-64
2022/04/03 00:25:19;;;;;;;9.27;5.07;;;;;;;;;;5115286;28;20253;-64
2022/04/03 00:27:47;;;;;;;8.97;5.27;;;;;;;;;;5115260;28;20219;-64
2022/04/03 00:30:14;;;;;;;7.63;4.73;;;;;;;;;;5114460;28;20226;-63
2022/04/03 00:32:41;;;;;;;9.27;5.63;;;;;;;;;;5115055;28;20201;-64
2022/04/03 00:35:09;;;;;;;8.20;5.33;;;;;;;;;;5115761;28;20723;-63
2022/04/03 00:37:36;;;;;;;8.90;4.63;;;;;;;;;;5119326;28;20519;-63
2022/04/03 00:40:04;;;;;;;16.23;5.17;;;;;;;;;;5119304;28;20202;-63
2022/04/03 00:42:35;;;;;;;11.57;5.10;;;;;;;;;;5119671;28;20224;-64
2022/04/03 00:45:04;;;;;;;9.43;5.00;;;;;;;;;;5119265;28;20569;-63
2022/04/03 00:47:32;;;;;;;9.67;5.67;;;;;;;;;;5119317;28;20202;-63
2022/04/03 00:49:59;;;;;;;11.47;5.00;;;;;;;;;;5119331;28;20210;-63
2022/04/03 00:52:27;;;;;;;13.63;5.90;;;;;;;;;;5119116;28;20204;-63
2022/04/03 00:54:54;;;;;;;9.93;5.13;;;;;;;;;;5119305;28;20228;-63
2022/04/03 00:57:22;;;;;;;9.27;5.77;;;;;;;;;;5119269;28;20290;-63
2022/04/03 00:59:50;;;;;;;8.93;5.47;;;;;;;;;;5119159;28;20292;-63
2022/04/03 01:02:17;;;;;;;9.23;5.10;;;;;;;;;;5118083;28;20251;-63
2022/04/03 01:04:44;;;;;;;11.37;5.60;;;;;;;;;;5112896;28;20237;-63
2022/04/03 01:07:16;;;;;;;10.13;5.77;;;;;;;;;;5098844;28;20203;-63
2022/04/03 01:09:44;;;;;;;10.10;5.37;;;;;;;;;;5098651;28;20280;-63
2022/04/03 01:12:13;;;;;;;12.03;5.40;;;;;;;;;;5098396;28;20290;-62
2022/04/03 01:14:57;;;;;;;8.93;5.43;;;;;;;;;;5098439;28;20218;-63
2022/04/03 01:17:24;;;;;;;11.73;6.00;;;;;;;;;;5098457;28;20371;-62
2022/04/03 01:19:51;;;;;;;12.60;6.13;;;;;;;;;;5097871;28;20536;-62
2022/04/03 01:22:18;;;;;;;11.07;5.53;;;;;;;;;;5097567;28;20591;-62
2022/04/03 01:24:47;;;;;;;10.70;5.50;;;;;;;;;;5097893;28;20294;-62
2022/04/03 01:27:13;;;;;;;8.33;5.03;;;;;;;;;;5097139;28;20198;-62
2022/04/03 01:29:41;;;;;;;8.70;5.47;;;;;;;;;;5098314;28;20622;-62
2022/04/03 01:32:10;;;;;;;11.97;6.80;;;;;;;;;;5098182;28;20229;-62
2022/04/03 01:34:37;;;;;;;9.57;5.63;;;;;;;;;;5098064;28;20289;-62
2022/04/03 01:37:04;;;;;;;9.63;4.77;;;;;;;;;;5098008;28;20223;-61
2022/04/03 01:39:32;;;;;;;11.23;6.03;;;;;;;;;;5098011;28;20202;-61
2022/04/03 01:42:00;;;;;;;9.47;5.67;;;;;;;;;;5097736;28;20207;-61
2022/04/03 01:44:27;;;;;;;9.90;6.00;;;;;;;;;;5097858;28;20325;-61
2022/04/03 01:46:55;;;;;;;12.80;5.97;;;;;;;;;;5097181;28;20274;-61
2022/04/03 01:49:22;;;;;;;9.53;6.03;;;;;;;;;;5098104;28;20286;-61
2022/04/03 01:51:49;;;;;;;15.07;5.73;;;;;;;;;;5097677;28;20290;-61
2022/04/03 01:54:16;;;;;;;10.63;5.83;;;;;;;;;;5097891;28;20217;-61
2022/04/03 01:56:45;;;;;;;11.97;5.57;;;;;;;;;;5097636;28;20214;-61
2022/04/03 01:59:12;;;;;;;9.90;6.07;;;;;;;;;;5097455;28;20199;-62
2022/04/03 02:01:39;;;;;;;8.80;5.63;;;;;;;;;;5097626;28;20605;-61
2022/04/03 02:04:07;;;;;;;11.57;6.20;;;;;;;;;;5097673;28;20229;-61
2022/04/03 02:06:34;;;;;;;10.13;6.67;;;;;;;;;;5097453;28;20207;-61
2022/04/03 02:09:04;;;;;;;9.30;5.87;;;;;;;;;;5097494;28;20289;-62
2022/04/03 02:11:31;;;;;;;11.20;7.17;;;;;;;;;;5097394;28;20286;-62
2022/04/03 02:13:58;;;;;;;8.53;5.37;;;;;;;;;;5097348;28;20210;-62
2022/04/03 02:16:25;;;;;;;11.43;6.57;;;;;;;;;;5097140;28;20285;-61
2022/04/03 02:18:52;;;;;;;9.77;6.00;;;;;;;;;;5097353;28;20198;-61
2022/04/03 02:21:19;;;;;;;8.73;5.77;;;;;;;;;;5097228;28;20293;-62
2022/04/03 02:23:46;;;;;;;10.73;5.27;;;;;;;;;;5097085;28;20286;-61
2022/04/03 02:26:14;;;;;;;9.63;6.43;;;;;;;;;;5097232;28;20647;-61
2022/04/03 02:28:41;;;;;;;11.20;6.37;;;;;;;;;;5096734;28;20203;-62
2022/04/03 02:31:08;;;;;;;13.90;6.43;;;;;;;;;;5097433;28;20202;-61
2022/04/03 02:33:35;;;;;;;13.93;6.37;;;;;;;;;;5096886;28;20606;-61
2022/04/03 02:36:02;;;;;;;11.67;6.63;;;;;;;;;;5096959;28;20298;-61
2022/04/03 02:38:30;;;;;;;9.47;5.23;;;;;;;;;;5096589;28;20700;-61
2022/04/03 02:40:57;;;;;;;10.17;6.23;;;;;;;;;;5096673;28;20285;-61
2022/04/03 02:43:24;;;;;;;9.87;5.70;;;;;;;;;;5097165;28;20520;-61
2022/04/03 02:45:51;;;;;;;10.10;6.37;;;;;;;;;;5096554;28;20241;-61
2022/04/03 02:48:18;;;;;;;11.97;6.27;;;;;;;;;;5096841;28;20199;-61
2022/04/03 02:50:46;;;;;;;11.10;6.17;;;;;;;;;;5096613;28;20198;-61
2022/04/03 02:53:14;;;;;;;10.90;6.30;;;;;;;;;;5097215;28;20203;-61
2022/04/03 02:55:41;;;;;;;7.80;5.10;;;;;;;;;;5096682;28;20229;-61
2022/04/03 02:58:08;;;;;;;9.20;5.20;;;;;;;;;;5096368;28;20207;-61
2022/04/03 03:00:35;;;;;;;9.53;4.40;;;;;;;;;;5095550;28;20692;-61
2022/04/03 03:03:05;;;;;;;10.93;6.37;;;;;;;;;;5096424;28;20628;-61
2022/04/03 03:05:32;;;;;;;12.57;6.20;;;;;;;;;;5096209;28;20222;-61
2022/04/03 03:08:00;;;;;;;8.60;5.50;;;;;;;;;;5096096;28;20293;-61
2022/04/03 03:10:27;;;;;;;15.07;7.03;;;;;;;;;;5096153;28;20204;-61
2022/04/03 03:12:54;;;;;;;11.23;6.13;;;;;;;;;;5096431;28;20277;-61
2022/04/03 03:15:21;;;;;;;12.80;6.70;;;;;;;;;;5096230;28;20214;-61
2022/04/03 03:17:49;;;;;;;12.07;6.00;;;;;;;;;;5096077;28;20194;-61
2022/04/03 03:20:21;;;;;;;14.60;6.07;;;;;;;;;;5095263;28;20316;-61
2022/04/03 03:22:48;;;;;;;9.43;5.57;;;;;;;;;;5095915;28;20656;-61
2022/04/03 03:25:15;;;;;;;9.23;6.03;;;;;;;;;;5095799;28;20668;-61
2022/04/03 03:27:43;;;;;;;10.43;5.30;;;;;;;;;;5096191;28;20205;-61
2022/04/03 03:30:11;;;;;;;13.87;5.93;;;;;;;;;;5095941;28;20321;-61
2022/04/03 03:32:38;;;;;;;12.30;6.37;;;;;;;;;;5095850;28;20209;-61
2022/04/03 03:35:07;;;;;;;10.70;5.83;;;;;;;;;;5095542;28;20202;-61
2022/04/03 03:37:34;;;;;;;10.23;6.63;;;;;;;;;;5095608;28;20211;-61
2022/04/03 03:40:03;;;;;;;11.77;6.10;;;;;;;;;;5095364;28;20679;-61
2022/04/03 03:42:30;;;;;;;12.53;6.73;;;;;;;;;;5095295;28;20202;-61
2022/04/03 03:44:59;;;;;;;8.00;6.00;;;;;;;;;;5095102;28;20241;-61
2022/04/03 03:47:26;;;;;;;11.67;6.20;;;;;;;;;;5095139;28;20199;-61
2022/04/03 03:49:54;;;;;;;10.70;6.27;;;;;;;;;;5095238;28;20226;-60
2022/04/03 03:52:22;;;;;;;10.83;5.83;;;;;;;;;;5095124;28;20233;-61
2022/04/03 03:54:49;;;;;;;9.57;6.30;;;;;;;;;;5105547;28;20255;-61
2022/04/03 03:57:16;;;;;;;10.53;6.73;;;;;;;;;;5103807;28;20234;-61
2022/04/03 03:59:44;;;;;;;10.20;6.20;;;;;;;;;;5105582;28;20202;-61
2022/04/03 04:02:11;;;;;;;10.10;6.47;;;;;;;;;;5108613;27;20734;-61
2022/04/03 04:04:38;;;;;;;10.23;6.47;;;;;;;;;;5109226;28;20226;-61
2022/04/03 04:07:05;;;;;;;10.73;5.50;;;;;;;;;;5100809;28;20228;-61
2022/04/03 04:09:32;;;;;;;8.80;5.47;;;;;;;;;;5105921;28;20198;-60
2022/04/03 04:11:59;;;;;;;10.60;6.40;;;;;;;;;;5106449;28;20271;-62
2022/04/03 04:14:26;;;;;;;12.93;6.33;;;;;;;;;;5113643;28;20198;-60
2022/04/03 04:16:53;;;;;;;13.63;6.70;;;;;;;;;;5107761;28;20650;-61
2022/04/03 04:19:21;;;;;;;13.43;6.33;;;;;;;;;;5095086;28;20210;-63
2022/04/03 04:21:48;;;;;;;10.93;5.30;;;;;;;;;;5098217;28;20213;-62
2022/04/03 04:24:15;;;;;;;11.37;6.87;;;;;;;;;;5110688;28;20590;-63
2022/04/03 04:26:42;;;;;;;10.57;6.73;;;;;;;;;;5114775;28;20317;-62
2022/04/03 04:29:09;;;;;;;11.23;6.23;;;;;;;;;;5109233;28;20317;-62
2022/04/03 04:31:37;;;;;;;10.10;5.77;;;;;;;;;;5105058;28;20252;-63
2022/04/03 04:34:05;;;;;;;10.70;6.63;;;;;;;;;;5105369;28;20197;-63
2022/04/03 04:36:32;;;;;;;11.30;5.90;;;;;;;;;;5105120;28;20340;-62
2022/04/03 04:39:00;;;;;;;12.80;6.03;;;;;;;;;;5102303;28;20226;-62
2022/04/03 04:41:27;;;;;;;12.07;6.43;;;;;;;;;;5104071;28;20195;-63
2022/04/03 04:43:54;;;;;;;11.17;6.63;;;;;;;;;;5105460;28;20278;-63
2022/04/03 04:46:21;;;;;;;11.13;6.20;;;;;;;;;;5102730;28;20218;-63
2022/04/03 04:48:49;;;;;;;12.23;7.27;;;;;;;;;;5103287;28;20198;-63
2022/04/03 04:51:17;;;;;;;9.80;6.10;;;;;;;;;;5106514;28;20263;-63
2022/04/03 04:53:44;;;;;;;12.57;6.47;;;;;;;;;;5104025;28;20269;-62
2022/04/03 04:56:12;;;;;;;14.73;5.97;;;;;;;;;;5104001;28;20617;-62
2022/04/03 04:58:40;;;;;;;12.20;6.47;;;;;;;;;;5102367;28;20187;-63
2022/04/03 05:01:07;;;;;;;11.53;6.77;;;;;;;;;;5108536;28;20611;-63
2022/04/03 05:03:34;;;;;;;13.07;6.13;;;;;;;;;;5108480;28;20209;-62
2022/04/03 05:06:03;;;;;;;12.40;6.23;;;;;;;;;;5099951;28;20256;-62
2022/04/03 05:08:30;;;;;;;17.60;8.03;;;;;;;;;;5100587;28;20236;-61
2022/04/03 05:10:57;;;;;;;15.17;6.73;;;;;;;;;;5109520;28;20218;-61
2022/04/03 05:13:25;;;;;;;13.33;7.37;;;;;;;;;;5113637;28;20226;-62
2022/04/03 05:15:53;;;;;;;13.17;6.73;;;;;;;;;;5114049;28;20218;-62
2022/04/03 05:18:21;;;;;;;14.27;8.07;;;;;;;;;;5095371;28;20262;-62
2022/04/03 05:20:49;;;;;;;17.20;7.10;;;;;;;;;;5106918;28;20553;-63
2022/04/03 05:23:16;;;;;;;15.10;6.60;;;;;;;;;;5105214;28;20227;-62
2022/04/03 05:25:43;;;;;;;10.83;6.80;;;;;;;;;;5097218;28;20234;-61
2022/04/03 05:28:17;;;;;;;14.50;6.50;;;;;;;;;;5097152;28;20295;-62
2022/04/03 05:30:46;;;;;;;12.30;6.97;;;;;;;;;;5096235;28;20246;-63
2022/04/03 05:33:15;;;;;;;10.97;6.33;;;;;;;;;;5096632;28;20437;-63
2022/04/03 05:35:42;;;;;;;12.17;4.80;;;;;;;;;;5097152;28;20246;-63
2022/04/03 05:38:09;;;;;;;13.67;6.90;;;;;;;;;;5096213;28;20215;-65
2022/04/03 05:40:36;;;;;;;11.03;6.57;;;;;;;;;;5097660;28;20363;-70
2022/04/03 05:43:04;;;;;;;14.93;7.23;;;;;;;;;;5096148;28;20246;-63
2022/04/03 05:45:31;;;;;;;12.70;6.50;;;;;;;;;;5106084;28;20645;-62
2022/04/03 05:47:58;;;;;;;15.13;6.77;;;;;;;;;;5117121;28;20285;-60
2022/04/03 05:50:26;;;;;;;10.27;6.30;;;;;;;;;;5112743;27;20656;-64
2022/04/03 05:52:54;;;;;;;14.40;7.43;;;;;;;;;;5100984;28;20549;-67
2022/04/03 05:55:21;;;;;;;10.43;5.80;;;;;;;;;;5102066;28;20378;-61
2022/04/03 05:57:50;;;;;;;11.80;6.97;;;;;;;;;;5105883;28;20594;-63
2022/04/03 06:00:19;;;;;;;11.40;7.43;;;;;;;;;;5096293;28;20229;-63
2022/04/03 06:03:00;;;;;;;13.30;7.50;;;;;;;;;;5096791;28;20306;-63
2022/04/03 06:05:29;;;;;;;13.23;8.23;;;;;;;;;;5095951;28;20317;-66
2022/04/03 06:08:02;;;;;;;12.40;7.77;;;;;;;;;;5095985;28;20226;-64
2022/04/03 06:10:30;;;;;;;14.97;7.23;;;;;;;;;;5096081;28;20227;-66
2022/04/03 06:12:58;;;;;;;10.50;7.07;;;;;;;;;;5096624;28;20249;-63
2022/04/03 06:15:29;;;;;;;12.40;8.03;;;;;;;;;;5095865;28;20254;-64
2022/04/03 06:17:56;;;;;;;15.53;7.67;;;;;;;;;;5096312;28;20268;-63
2022/04/03 06:20:23;;;;;;;14.77;7.33;;;;;;;;;;5102108;28;20226;-62
2022/04/03 06:22:51;;;;;;;11.00;7.80;;;;;;;;;;5116271;28;20222;-63
2022/04/03 06:25:20;;;;;;;12.53;7.33;;;;;;;;;;5116018;27;20622;-62
2022/04/03 06:27:47;;;;;;;11.30;7.40;;;;;;;;;;5116790;28;20218;-62
2022/04/03 06:30:15;;;;;;;12.57;7.77;;;;;;;;;;5116411;27;20317;-64
2022/04/03 06:32:42;;;;;;;15.37;9.00;;;;;;;;;;5116391;28;20256;-62
2022/04/03 06:35:10;;;;;;;18.50;9.33;;;;;;;;;;5116204;27;20214;-64
2022/04/03 06:37:37;;;;;;;15.53;8.17;;;;;;;;;;5115664;28;20308;-63
2022/04/03 06:40:05;;;;;;;17.73;8.87;;;;;;;;;;5116180;27;20317;-62
2022/04/03 06:42:33;;;;;;;11.60;7.90;;;;;;;;;;5115893;28;20321;-62
2022/04/03 06:45:01;;;;;;;12.53;7.67;;;;;;;;;;5115148;28;20275;-63
2022/04/03 06:47:30;;;;;;;18.30;8.57;;;;;;;;;;5101013;28;20219;-61
2022/04/03 06:49:58;;;;;;;16.03;8.20;;;;;;;;;;5095543;28;20222;-61
2022/04/03 06:52:25;;;;;;;11.53;7.03;;;;;;;;;;5095001;28;20226;-61
2022/04/03 06:54:52;;;;;;;14.00;8.27;;;;;;;;;;5102196;27;20230;-65
2022/04/03 06:57:19;;;;;;;12.27;7.30;;;;;;;;;;5108493;28;20296;-64
2022/04/03 06:59:47;;;;;;;14.83;8.10;;;;;;;;;;5114537;28;20296;-64
2022/04/03 07:02:14;;;;;;;12.90;7.93;;;;;;;;;;5111643;28;20214;-64
2022/04/03 07:04:41;;;;;;;13.23;8.70;;;;;;;;;;5114627;28;20264;-63
2022/04/03 07:07:08;;;;;;;12.97;8.20;;;;;;;;;;5114326;27;20290;-63
2022/04/03 07:09:39;;;;;;;15.47;9.27;;;;;;;;;;5115665;28;20229;-64
2022/04/03 07:12:08;;;;;;;15.50;8.63;;;;;;;;;;5115775;28;20222;-64
2022/04/03 07:14:35;;;;;;;14.13;8.73;;;;;;;;;;5115170;28;20331;-63
2022/04/03 07:17:02;;;;;;;15.93;8.83;;;;;;;;;;5114722;28;20230;-65
2022/04/03 07:19:29;;;;;;;14.00;8.00;;;;;;;;;;5115129;28;20242;-63
2022/04/03 07:21:57;;;;;;;14.93;8.67;;;;;;;;;;5114823;28;20305;-64
2022/04/03 07:24:25;;;;;;;14.73;8.57;;;;;;;;;;5115508;28;20234;-62
2022/04/03 07:26:53;;;;;;;12.47;8.47;;;;;;;;;;5115192;28;20680;-64
2022/04/03 07:29:21;;;;;;;11.97;7.40;;;;;;;;;;5114062;28;20233;-64
2022/04/03 07:31:49;;;;;;;13.63;8.37;;;;;;;;;;5115059;27;20566;-64
2022/04/03 07:34:17;;;;;;;13.33;8.00;;;;;;;;;;5115231;28;20249;-63
2022/04/03 07:36:44;;;;;;;12.17;7.70;;;;;;;;;;5114632;27;20226;-64
2022/04/03 07:39:12;;;;;;;13.37;7.97;;;;;;;;;;5115474;28;20599;-65
2022/04/03 07:41:39;;;;;;;14.53;7.73;;;;;;;;;;5113320;27;20222;-63
2022/04/03 07:44:11;;;;;;;16.33;8.27;;;;;;;;;;5093949;28;20218;-62
2022/04/03 07:46:41;;;;;;;14.40;8.20;;;;;;;;;;5093050;28;20571;-62
2022/04/03 07:49:10;;;;;;;16.27;8.60;;;;;;;;;;5091696;28;20305;-59
2022/04/03 07:51:37;;;;;;;11.80;8.30;;;;;;;;;;5093800;28;20745;-63
2022/04/03 07:54:05;;;;;;;16.50;9.43;;;;;;;;;;5099354;28;20696;-59
2022/04/03 07:56:32;;;;;;;12.53;8.17;;;;;;;;;;5107221;27;20706;-63
2022/04/03 07:58:59;;;;;;;14.70;8.93;;;;;;;;;;5107788;28;20656;-63
2022/04/03 08:01:26;;;;;;;14.13;8.40;;;;;;;;;;5108861;27;20640;-62
2022/04/03 08:03:54;;;;;;;14.67;8.77;;;;;;;;;;5109672;28;20221;-63
2022/04/03 08:06:21;;;;;;;12.87;8.20;;;;;;;;;;5112501;27;20287;-62
2022/04/03 08:08:48;;;;;;;12.20;8.20;;;;;;;;;;5113406;28;20233;-61
2022/04/03 08:11:15;;;;;;;12.73;7.90;;;;;;;;;;5109966;27;20312;-63
2022/04/03 08:13:43;;;;;;;11.20;7.77;;;;;;;;;;5109367;28;20241;-61
2022/04/03 08:16:10;;;;;;;16.23;8.53;;;;;;;;;;5111786;28;20275;-61
2022/04/03 08:18:38;;;;;;;16.97;8.83;;;;;;;;;;5112975;27;20305;-62
2022/04/03 08:21:05;;;;;;;13.13;8.20;;;;;;;;;;5112887;28;20263;-62
2022/04/03 08:23:32;;;;;;;13.53;8.67;;;;;;;;;;5110508;28;20324;-62
2022/04/03 08:25:59;;;;;;;18.67;8.67;;;;;;;;;;5109508;28;20260;-61
2022/04/03 08:28:28;;;;;;;12.33;8.83;;;;;;;;;;5112466;28;20686;-62
2022/04/03 08:30:56;;;;;;;13.50;8.50;;;;;;;;;;5112026;28;20209;-62
2022/04/03 08:33:29;;;;;;;13.83;8.20;;;;;;;;;;5109755;28;20224;-63
2022/04/03 08:35:57;;;;;;;13.47;8.20;;;;;;;;;;5112950;28;20279;-62
2022/04/03 08:38:24;;;;;;;12.93;8.43;;;;;;;;;;5110128;28;20222;-62
2022/04/03 08:40:52;;;;;;;13.87;8.70;;;;;;;;;;5113270;28;20562;-60
2022/04/03 08:43:20;;;;;;;13.13;8.47;;;;;;;;;;5112804;27;20325;-63
2022/04/03 08:45:48;;;;;;;16.00;9.10;;;;;;;;;;5112004;28;20539;-61
2022/04/03 08:48:19;;;;;;;13.60;8.87;;;;;;;;;;5112715;27;20275;-65
2022/04/03 08:50:50;;;;;;;13.20;8.77;;;;;;;;;;5108978;28;20226;-62
2022/04/03 08:53:22;;;;;;;12.13;8.63;;;;;;;;;;5113660;28;20298;-62
2022/04/03 08:55:49;;;;;;;14.03;8.60;;;;;;;;;;5114186;28;20218;-60
2022/04/03 08:58:17;;;;;;;13.77;8.80;;;;;;;;;;5117644;28;20723;-62
2022/04/03 09:00:45;;;;;;;12.33;8.60;;;;;;;;;;5117931;28;20226;-62
2022/04/03 09:03:13;;;;;;;13.53;8.83;;;;;;;;;;5118050;28;20222;-61
2022/04/03 09:05:43;;;;;;;12.97;8.00;;;;;;;;;;5117843;28;20292;-61
2022/04/03 09:08:10;;;;;;;12.30;8.50;;;;;;;;;;5118154;27;20237;-61
2022/04/03 09:10:39;;;;;;;14.50;8.60;;;;;;;;;;5113614;27;20214;-61
2022/04/03 09:13:06;;;;;;;14.77;8.70;;;;;;;;;;5097495;28;20531;-61
2022/04/03 09:15:33;;;;;;;15.67;9.30;;;;;;;;;;5102256;28;20301;-61
2022/04/03 09:18:02;;;;;;;11.23;7.90;;;;;;;;;;5105303;27;20550;-60
2022/04/03 09:20:30;;;;;;;12.73;8.57;;;;;;;;;;5104670;27;20279;-60
2022/04/03 09:22:59;;;;;;;13.63;8.50;;;;;;;;;;5098125;28;20671;-61
2022/04/03 09:25:37;;;;;;;12.90;8.73;;;;;;;;;;5102165;28;20226;-59
2022/04/03 09:28:07;;;;;;;15.33;8.23;;;;;;;;;;5111002;28;20237;-52
2022/04/03 09:30:54;;;;;;;12.97;7.47;;;;;;;;;;5117783;28;20310;-59
2022/04/03 09:33:22;;;;;;;16.90;8.70;;;;;;;;;;5117306;27;20225;-60
2022/04/03 09:35:54;;;;;;;12.33;7.93;;;;;;;;;;5101714;28;20305;-59
2022/04/03 09:38:22;;;;;;;13.03;8.23;;;;;;;;;;5096693;28;20788;-58
2022/04/03 09:40:51;;;;;;;11.87;8.70;;;;;;;;;;5097332;28;20301;-58
2022/04/03 09:43:21;;;;;;;11.87;8.23;;;;;;;;;;5096266;28;20208;-58
2022/04/03 09:46:00;;;;;;;13.30;8.00;;;;;;;;;;5097853;28;20198;-58
2022/04/03 09:48:36;;;;;;;11.23;8.07;;;;;;;;;;5097523;28;20191;-58
2022/04/03 09:51:05;;;;;;;13.77;8.13;;;;;;;;;;5097926;28;20661;-58
2022/04/03 09:53:52;;;;;;;11.43;7.90;;;;;;;;;;5097522;28;20655;-59
2022/04/03 09:56:25;;;;;;;11.90;7.73;;;;;;;;;;5097889;28;20187;-58
2022/04/03 09:58:52;;;;;;;11.93;8.00;;;;;;;;;;5097730;28;20519;-58
2022/04/03 10:01:22;;;;;;;11.40;7.90;;;;;;;;;;5117623;28;20289;-58
2022/04/03 10:03:51;;;;;;;12.87;8.90;;;;;;;;;;5118071;28;20266;-58
2022/04/03 10:06:18;;;;;;;12.33;7.87;;;;;;;;;;5117696;28;20225;-58
2022/04/03 10:08:48;;;;;;;13.47;8.10;;;;;;;;;;5117244;28;20289;-58
2022/04/03 10:11:15;;;;;;;11.87;7.57;;;;;;;;;;5117904;27;20539;-58
2022/04/03 10:13:43;;;;;;;11.23;7.77;;;;;;;;;;5117398;28;20658;-59
2022/04/03 10:16:11;;;;;;;12.03;7.83;;;;;;;;;;5117403;28;20236;-59
2022/04/03 10:18:39;;;;;;;11.57;7.47;;;;;;;;;;5117348;28;20201;-58
2022/04/03 10:21:11;;;;;;;12.17;7.90;;;;;;;;;;5117358;28;20526;-58
2022/04/03 10:23:39;;;;;;;11.07;7.20;;;;;;;;;;5117557;28;20263;-58
2022/04/03 10:26:08;;;;;;;11.07;7.10;;;;;;;;;;5116310;28;20508;-58
2022/04/03 10:28:35;;;;;;;13.03;7.53;;;;;;;;;;5116470;28;20285;-59
2022/04/03 10:31:07;;;;;;;9.90;5.90;;;;;;;;;;5099414;28;20203;-58
2022/04/03 10:33:39;;;;;;;10.47;7.27;;;;;;;;;;5097154;28;20213;-58
2022/04/03 10:36:11;;;;;;;10.97;7.70;;;;;;;;;;5097124;28;20199;-58
2022/04/03 10:38:42;;;;;;;11.30;7.47;;;;;;;;;;5096907;28;20544;-59
2022/04/03 10:41:28;;;;;;;9.77;6.37;;;;;;;;;;5096828;28;20203;-59
2022/04/03 10:44:22;;;;;;;9.53;6.57;;;;;;;;;;5096141;28;20525;-58
2022/04/03 10:47:01;;;;;;;9.23;6.60;;;;;;;;;;5096538;28;20227;-59
2022/04/03 10:49:30;;;;;;;10.07;6.97;;;;;;;;;;5096749;28;20237;-58
2022/04/03 10:52:11;;;;;;;10.07;6.83;;;;;;;;;;5100284;28;20581;-59
2022/04/03 10:54:48;;;;;;;11.53;6.00;;;;;;;;;;5105860;28;20518;-57
2022/04/03 10:57:32;;;;;;;8.20;6.13;;;;;;;;;;5116287;28;20297;-58
2022/04/03 11:00:11;;;;;;;8.30;5.37;;;;;;;;;;5117082;28;20263;-58
2022/04/03 11:02:40;;;;;;;9.80;6.07;;;;;;;;;;5116530;28;20269;-57
2022/04/03 11:05:29;;;;;;;9.37;6.10;;;;;;;;;;5116442;28;20202;-58
2022/04/03 11:08:04;;;;;;;8.17;5.73;;;;;;;;;;5112881;28;20302;-57
2022/04/03 11:10:56;;;;;;;9.03;6.53;;;;;;;;;;5109317;28;20226;-56
2022/04/03 11:13:38;;;;;;;9.20;5.47;;;;;;;;;;5103227;28;20302;-59
2022/04/03 11:16:12;;;;;;;8.93;5.70;;;;;;;;;;5105947;27;20297;-59
2022/04/03 11:18:42;;;;;;;7.20;5.40;;;;;;;;;;5100700;28;20253;-59
2022/04/03 11:21:18;;;;;;;8.73;6.17;;;;;;;;;;5105200;27;20305;-53
2022/04/03 11:24:03;;;;;;;8.63;5.80;;;;;;;;;;5111877;28;20648;-58
2022/04/03 11:26:32;;;;;;;8.97;6.57;;;;;;;;;;5104048;27;20229;-56
2022/04/03 11:29:07;;;;;;;9.30;5.97;;;;;;;;;;5105042;28;20233;-59
2022/04/03 11:31:38;;;;;;;9.13;6.03;;;;;;;;;;5103089;27;20210;-58
2022/04/03 11:34:06;;;;;;;9.37;5.77;;;;;;;;;;5103097;28;20276;-60
2022/04/03 11:36:34;;;;;;;9.03;6.13;;;;;;;;;;5103020;28;20239;-59
2022/04/03 11:39:05;;;;;;;8.33;5.27;;;;;;;;;;5104555;28;20541;-55
2022/04/03 11:41:35;;;;;;;9.47;5.13;;;;;;;;;;5103721;27;20719;-57
2022/04/03 11:44:12;;;;;;;7.83;4.80;;;;;;;;;;5096615;28;20223;-57
2022/04/03 11:46:44;;;;;;;8.10;4.50;;;;;;;;;;5095400;28;20201;-51
2022/04/03 11:49:13;;;;;;;9.00;5.30;;;;;;;;;;5095502;28;20212;-56
2022/04/03 11:51:40;;;;;;;7.37;4.93;;;;;;;;;;5094843;28;20253;-58
2022/04/03 11:54:09;;;;;;;10.27;4.93;;;;;;;;;;5094688;28;20648;-58
2022/04/03 11:56:37;;;;;;;9.63;4.83;;;;;;;;;;5094601;28;20207;-56
2022/04/03 11:59:10;;;;;;;6.73;4.53;;;;;;;;;;5097271;28;20202;-56
2022/04/03 12:01:49;;;;;;;8.60;4.90;;;;;;;;;;5115678;28;20251;-57
2022/04/03 12:04:18;;;;;;;7.13;4.40;;;;;;;;;;5115688;28;20201;-57
2022/04/03 12:06:56;;;;;;;6.47;4.40;;;;;;;;;;5115637;28;20293;-57
2022/04/03 12:09:23;;;;;;;8.37;4.90;;;;;;;;;;5115691;28;20502;-58
2022/04/03 12:11:53;;;;;;;7.27;5.37;;;;;;;;;;5115320;28;20276;-57
2022/04/03 12:14:25;;;;;;;6.93;4.80;;;;;;;;;;5115289;28;20198;-57
2022/04/03 12:17:00;;;;;;;8.37;4.53;;;;;;;;;;5115264;28;20628;-58
2022/04/03 12:19:29;;;;;;;5.67;3.50;;;;;;;;;;5115220;28;20285;-58
2022/04/03 12:22:00;;;;;;;8.27;4.50;;;;;;;;;;5115716;28;20206;-57
2022/04/03 12:24:32;;;;;;;5.80;4.03;;;;;;;;;;5115242;28;20206;-59
2022/04/03 12:27:15;;;;;;;7.60;4.87;;;;;;;;;;5115375;28;20548;-58
2022/04/03 12:29:45;;;;;;;5.33;3.87;;;;;;;;;;5108854;28;20250;-56
2022/04/03 12:32:18;;;;;;;7.70;5.40;;;;;;;;;;5094628;28;20198;-56
2022/04/03 12:34:47;;;;;;;9.13;4.50;;;;;;;;;;5094750;28;20213;-57
2022/04/03 12:37:15;;;;;;;8.30;4.27;;;;;;;;;;5093829;28;20281;-58
2022/04/03 12:39:43;;;;;;;7.43;4.30;;;;;;;;;;5094904;28;20195;-57
2022/04/03 12:42:38;;;;;;;9.20;4.83;;;;;;;;;;5094584;28;20267;-57
2022/04/03 12:45:10;;;;;;;9.90;5.37;;;;;;;;;;5094594;28;20209;-56
2022/04/03 12:47:37;;;;;;;9.73;4.90;;;;;;;;;;5094833;28;20245;-56
2022/04/03 12:50:05;;;;;;;8.43;5.53;;;;;;;;;;5094504;28;20198;-56
2022/04/03 12:52:39;;;;;;;7.30;5.10;;;;;;;;;;5094770;28;20521;-55
2022/04/03 12:55:27;;;;;;;7.43;4.93;;;;;;;;;;5094735;28;20271;-58
2022/04/03 13:00:51;;;;;;;10.40;5.63;;;;;;;;;;5109088;28;20640;-57
2022/04/03 13:03:46;;;;;;;7.60;4.80;;;;;;;;;;5114951;28;20206;-57
2022/04/03 13:06:25;;;;;;;7.17;5.17;;;;;;;;;;5096686;28;20285;-55
2022/04/03 13:08:57;;;;;;;9.70;5.10;;;;;;;;;;5114968;28;20226;-57
2022/04/03 13:11:37;;;;;;;7.07;4.80;;;;;;;;;;5114749;28;20194;-57
2022/04/03 13:14:13;;;;;;;7.77;5.43;;;;;;;;;;5115315;28;20225;-57
2022/04/03 13:16:41;;;;;;;8.20;5.30;;;;;;;;;;5115261;28;20198;-56
2022/04/03 13:19:09;;;;;;;7.13;5.20;;;;;;;;;;5114964;28;20221;-57
2022/04/03 13:21:37;;;;;;;8.23;5.50;;;;;;;;;;5114650;28;20297;-59
2022/04/03 13:24:05;;;;;;;8.20;5.27;;;;;;;;;;5114617;28;20226;-58
2022/04/03 13:26:48;;;;;;;8.23;5.60;;;;;;;;;;5114589;28;20212;-56
2022/04/03 13:29:18;;;;;;;7.73;5.23;;;;;;;;;;5111801;28;20234;-58
2022/04/03 13:31:46;;;;;;;8.83;6.07;;;;;;;;;;5094126;28;20207;-58
2022/04/03 13:34:13;;;;;;;8.87;6.07;;;;;;;;;;5093205;28;20202;-58
2022/04/03 13:36:41;;;;;;;10.83;6.30;;;;;;;;;;5094049;28;20222;-57
2022/04/03 13:39:09;;;;;;;9.27;5.80;;;;;;;;;;5094004;28;20264;-59
2022/04/03 13:41:44;;;;;;;8.13;5.87;;;;;;;;;;5094155;28;20202;-58
2022/04/03 13:44:14;;;;;;;6.73;5.33;;;;;;;;;;5096161;28;20203;-58
2022/04/03 13:46:42;;;;;;;8.67;6.03;;;;;;;;;;5097978;28;20191;-57
2022/04/03 13:49:09;;;;;;;8.43;5.47;;;;;;;;;;5097426;28;20301;-57
2022/04/03 13:51:38;;;;;;;10.00;5.50;;;;;;;;;;5097755;28;20215;-57
2022/04/03 13:54:08;;;;;;;8.27;5.37;;;;;;;;;;5097739;28;20286;-58
2022/04/03 13:56:36;;;;;;;8.70;5.43;;;;;;;;;;5097915;28;20306;-58
2022/04/03 13:59:04;;;;;;;8.30;5.17;;;;;;;;;;5098341;28;20587;-58
2022/04/03 14:01:33;;;;;;;9.40;5.80;;;;;;;;;;5114322;28;20632;-60
2022/04/03 14:04:02;;;;;;;10.97;6.10;;;;;;;;;;5104365;28;20207;-59
2022/04/03 14:06:30;;;;;;;7.53;5.70;;;;;;;;;;5106079;28;20290;-60
2022/04/03 14:08:57;;;;;;;11.27;5.80;;;;;;;;;;5116611;28;20251;-62
2022/04/03 14:11:25;;;;;;;7.97;5.13;;;;;;;;;;5116501;28;20225;-61
2022/04/03 14:13:52;;;;;;;8.17;5.80;;;;;;;;;;5116032;28;20590;-61
2022/04/03 14:16:20;;;;;;;7.83;5.60;;;;;;;;;;5113563;28;20230;-58
2022/04/03 14:18:48;;;;;;;9.43;5.83;;;;;;;;;;5107661;28;20223;-59
2022/04/03 14:21:16;;;;;;;9.40;5.00;;;;;;;;;;5100232;27;20238;-59
2022/04/03 14:23:43;;;;;;;8.33;5.33;;;;;;;;;;5098798;28;20221;-60
2022/04/03 14:26:10;;;;;;;7.03;5.53;;;;;;;;;;5101808;27;20536;-59
2022/04/03 14:28:39;;;;;;;10.07;5.77;;;;;;;;;;5106022;28;20325;-59
2022/04/03 14:31:07;;;;;;;8.30;5.77;;;;;;;;;;5106403;28;20722;-60
2022/04/03 14:33:34;;;;;;;10.17;5.23;;;;;;;;;;5097966;28;20249;-65
2022/04/03 14:36:01;;;;;;;8.37;5.33;;;;;;;;;;5107408;27;20218;-67
2022/04/03 14:38:29;;;;;;;9.13;5.63;;;;;;;;;;5114563;28;20267;-62
2022/04/03 14:40:57;;;;;;;11.40;5.97;;;;;;;;;;5111637;28;20234;-63
2022/04/03 14:43:25;;;;;;;10.90;6.03;;;;;;;;;;5095469;28;20234;-63
2022/04/03 14:45:53;;;;;;;8.17;5.97;;;;;;;;;;5095696;28;20226;-62
2022/04/03 14:48:20;;;;;;;10.43;6.80;;;;;;;;;;5097996;28;20317;-62
2022/04/03 14:50:48;;;;;;;11.80;6.50;;;;;;;;;;5104741;28;20276;-61